Time;durP1;ratioP1;P1;durP2;ratioP2;P2;SDS_P1;SDS_P2;PMS_P1;PMS_P2;Temp;Humidity;BMP_temperature;BMP_pressure;BME280_temperature;BME280_humidity;BME280_pressure;Samples;Min_cycle;Max_cycle;Signal;HPM_P1;HPM_P2
2024/01/06 00:03:57;;;;;;;46.10;27.40;;;;;;;4.08;69.42;98099.85;232137;204;151050;-56
2024/01/06 00:09:01;;;;;;;45.80;27.80;;;;;;;4.09;69.46;98095.04;232357;197;137275;-52
2024/01/06 00:14:04;;;;;;;48.70;27.90;;;;;;;4.06;69.45;98091.36;232288;197;138256;-56
2024/01/06 00:19:07;;;;;;;45.80;26.90;;;;;;;4.07;69.55;98084.80;232307;201;152578;-56
2024/01/06 00:24:10;;;;;;;45.80;27.80;;;;;;;4.05;69.70;98089.83;230889;202;138341;-55
2024/01/06 00:29:14;;;;;;;43.90;26.40;;;;;;;4.05;69.79;98088.25;232176;197;137675;-56
2024/01/06 00:34:17;;;;;;;45.20;27.30;;;;;;;4.05;69.76;98074.21;232163;201;151868;-56
2024/01/06 00:39:20;;;;;;;46.60;26.20;;;;;;;4.06;69.83;98078.38;232187;204;141134;-52
2024/01/06 00:44:23;;;;;;;45.30;26.90;;;;;;;4.06;69.95;98082.58;232237;204;138769;-54
2024/01/06 00:49:27;;;;;;;46.10;28.40;;;;;;;4.11;69.92;98076.88;231522;200;151240;-58
2024/01/06 00:54:30;;;;;;;55.50;30.70;;;;;;;4.16;69.63;98071.73;232119;201;137533;-56
2024/01/06 00:59:33;;;;;;;55.90;30.50;;;;;;;4.20;69.70;98064.81;232199;204;138597;-57
2024/01/06 01:04:36;;;;;;;51.90;30.60;;;;;;;4.22;69.61;98059.43;232166;204;152241;-56
2024/01/06 01:09:40;;;;;;;56.00;31.20;;;;;;;4.22;69.51;98052.97;232194;201;137011;-56
2024/01/06 01:14:43;;;;;;;57.90;32.70;;;;;;;4.21;69.59;98057.75;232229;202;138021;-55
2024/01/06 01:19:46;;;;;;;57.50;33.70;;;;;;;4.23;69.58;98058.69;232377;204;152086;-56
2024/01/06 01:24:50;;;;;;;62.30;33.80;;;;;;;4.19;69.58;98051.89;232162;204;139153;-57
2024/01/06 01:29:54;;;;;;;66.10;36.40;;;;;;;4.14;69.62;98058.48;232196;204;137503;-57
2024/01/06 01:34:58;;;;;;;64.30;36.80;;;;;;;4.12;69.88;98057.00;231925;202;151553;-56
2024/01/06 01:40:01;;;;;;;65.50;37.50;;;;;;;4.13;69.89;98049.23;232045;201;137897;-54
2024/01/06 01:45:05;;;;;;;65.30;37.70;;;;;;;4.07;70.17;98049.02;232305;201;137832;-57
2024/01/06 01:50:09;;;;;;;64.50;38.10;;;;;;;4.03;70.21;98047.78;232211;198;151935;-55
2024/01/06 01:55:13;;;;;;;61.00;35.80;;;;;;;4.01;70.45;98048.57;232161;197;138265;-56
2024/01/06 02:00:16;;;;;;;58.10;34.50;;;;;;;4.01;70.47;98054.20;232229;198;137957;-55
2024/01/06 02:05:20;;;;;;;59.70;36.00;;;;;;;4.07;70.30;98045.98;232199;204;151929;-56
2024/01/06 02:10:23;;;;;;;63.20;36.60;;;;;;;4.16;70.30;98044.69;232108;204;140549;-55
2024/01/06 02:15:26;;;;;;;57.10;36.00;;;;;;;4.23;70.06;98044.30;232147;197;138041;-56
2024/01/06 02:20:31;;;;;;;53.90;34.90;;;;;;;4.26;69.95;98041.67;232217;197;151500;-57
2024/01/06 02:25:35;;;;;;;53.40;33.30;;;;;;;4.26;69.85;98045.35;231462;197;138086;-53
2024/01/06 02:30:38;;;;;;;54.40;32.40;;;;;;;4.24;69.84;98033.55;232300;204;137640;-56
2024/01/06 02:35:41;;;;;;;54.60;32.30;;;;;;;4.22;69.86;98032.61;231758;198;151164;-57
2024/01/06 02:40:44;;;;;;;51.90;32.20;;;;;;;4.20;70.04;98046.75;232205;200;137286;-54
2024/01/06 02:45:47;;;;;;;50.60;29.30;;;;;;;4.18;70.18;98045.26;232147;204;139848;-55
2024/01/06 02:50:51;;;;;;;47.00;29.00;;;;;;;4.18;70.17;98042.29;232172;197;151412;-55
2024/01/06 02:55:54;;;;;;;46.70;28.90;;;;;;;4.17;70.24;98044.45;232333;204;138048;-54
2024/01/06 03:00:59;;;;;;;47.60;29.00;;;;;;;4.17;70.34;98042.51;232172;201;137953;-56
2024/01/06 03:06:02;;;;;;;47.20;28.60;;;;;;;4.18;70.45;98034.94;232128;204;153520;-54
2024/01/06 03:11:06;;;;;;;46.40;28.10;;;;;;;4.17;70.34;98024.08;232166;201;138385;-55
2024/01/06 03:16:11;;;;;;;42.90;27.10;;;;;;;4.19;70.37;98019.94;232247;198;138181;-56
2024/01/06 03:21:18;;;;;;;41.50;27.80;;;;;;;4.28;70.08;98016.11;232315;204;151576;-55
2024/01/06 03:26:22;;;;;;;48.90;29.10;;;;;;;4.36;69.95;98020.61;232278;201;137387;-55
2024/01/06 03:31:25;;;;;;;46.30;27.90;;;;;;;4.41;69.87;98011.05;232332;201;137841;-55
2024/01/06 03:36:29;;;;;;;44.00;27.90;;;;;;;4.43;69.87;98015.66;232306;197;152471;-54
2024/01/06 03:41:32;;;;;;;46.90;27.40;;;;;;;4.44;69.84;98016.14;232112;198;138659;-56
2024/01/06 03:46:37;;;;;;;43.30;27.40;;;;;;;4.45;69.77;98010.63;232139;204;137494;-55
2024/01/06 03:51:40;;;;;;;48.50;27.50;;;;;;;4.41;69.72;98008.20;232232;201;152791;-54
2024/01/06 03:56:44;;;;;;;44.70;26.40;;;;;;;4.41;69.57;98008.38;232195;201;137198;-56
2024/01/06 04:01:47;;;;;;;44.00;26.10;;;;;;;4.40;69.58;98012.84;232317;201;137287;-56
2024/01/06 04:06:50;;;;;;;73.50;33.80;;;;;;;4.38;69.57;98009.11;232060;204;151379;-53
2024/01/06 04:11:53;;;;;;;48.00;27.40;;;;;;;4.36;69.59;98017.10;231990;205;138486;-55
2024/01/06 04:16:56;;;;;;;42.90;26.60;;;;;;;4.36;69.60;98014.33;232058;204;137180;-55
2024/01/06 04:22:00;;;;;;;40.70;26.00;;;;;;;4.35;69.71;98009.06;232111;200;151564;-55
2024/01/06 04:27:04;;;;;;;39.00;24.40;;;;;;;4.38;70.00;98003.48;232070;200;138854;-55
2024/01/06 04:32:07;;;;;;;40.60;24.60;;;;;;;4.42;69.83;98003.41;231857;202;139368;-56
2024/01/06 04:37:10;;;;;;;41.00;25.00;;;;;;;4.49;69.74;98004.48;232267;204;151410;-54
2024/01/06 04:42:13;;;;;;;38.80;24.90;;;;;;;4.55;69.58;98010.48;232178;204;139348;-55
2024/01/06 04:47:17;;;;;;;40.30;24.00;;;;;;;4.62;69.26;98018.19;232114;201;137369;-56
2024/01/06 04:52:20;;;;;;;35.10;23.90;;;;;;;4.66;69.17;98019.02;231912;198;151331;-55
2024/01/06 04:57:24;;;;;;;39.30;23.20;;;;;;;4.67;69.18;98025.27;232242;204;137792;-56
2024/01/06 05:02:27;;;;;;;37.00;23.00;;;;;;;4.66;69.13;98013.04;232068;196;138144;-55
2024/01/06 05:07:30;;;;;;;37.10;22.80;;;;;;;4.66;69.20;98019.15;232260;204;152813;-56
2024/01/06 05:12:33;;;;;;;35.40;22.80;;;;;;;4.69;69.15;98030.45;231742;198;138162;-55
2024/01/06 05:17:37;;;;;;;35.90;21.70;;;;;;;4.70;68.93;98036.88;232348;204;139590;-54
2024/01/06 05:22:40;;;;;;;34.50;22.90;;;;;;;4.69;68.92;98034.62;232308;201;152531;-54
2024/01/06 05:27:43;;;;;;;31.20;20.90;;;;;;;4.68;68.99;98044.20;232163;204;138254;-54
2024/01/06 05:32:46;;;;;;;35.10;21.70;;;;;;;4.69;69.01;98046.95;232156;197;137086;-55
2024/01/06 05:37:50;;;;;;;31.10;20.60;;;;;;;4.70;69.03;98056.39;232218;204;152095;-55
2024/01/06 05:42:55;;;;;;;35.80;21.50;;;;;;;4.71;69.12;98074.39;231018;205;138647;-52
2024/01/06 05:47:59;;;;;;;34.50;22.40;;;;;;;4.74;68.93;98081.63;231983;198;138957;-55
2024/01/06 05:53:02;;;;;;;34.80;22.40;;;;;;;4.83;69.15;98072.90;232108;201;153330;-51
2024/01/06 05:58:06;;;;;;;31.90;22.30;;;;;;;4.87;69.41;98069.15;231835;204;139603;-54
2024/01/06 06:03:09;;;;;;;31.60;21.40;;;;;;;4.92;69.27;98064.10;232047;202;138028;-55
2024/01/06 06:08:12;;;;;;;33.20;20.70;;;;;;;4.94;69.25;98061.05;232005;197;151589;-56
2024/01/06 06:13:16;;;;;;;34.20;21.00;;;;;;;4.89;69.45;98058.33;232283;204;136627;-55
2024/01/06 06:18:19;;;;;;;33.50;21.10;;;;;;;4.84;69.48;98060.52;231530;204;138261;-55
2024/01/06 06:23:22;;;;;;;32.30;19.90;;;;;;;4.82;69.76;98063.63;232234;204;152526;-53
2024/01/06 06:28:26;;;;;;;31.80;20.30;;;;;;;4.82;69.75;98071.56;232022;204;137952;-54
2024/01/06 06:33:30;;;;;;;29.90;19.90;;;;;;;4.77;69.90;98068.65;232182;197;140243;-56
2024/01/06 06:38:33;;;;;;;32.90;21.40;;;;;;;4.75;70.13;98069.80;232054;202;151508;-53
2024/01/06 06:43:36;;;;;;;29.70;20.00;;;;;;;4.75;70.24;98068.06;232143;204;137025;-53
2024/01/06 06:48:40;;;;;;;296.40;225.80;;;;;;;4.80;70.88;98072.32;232070;197;138222;-55
2024/01/06 06:53:43;;;;;;;36.20;24.00;;;;;;;4.91;70.95;98067.20;232095;198;151836;-54
2024/01/06 06:58:48;;;;;;;32.20;19.70;;;;;;;5.02;70.52;98068.52;232002;204;137856;-55
2024/01/06 07:03:51;;;;;;;189.20;119.60;;;;;;;5.08;70.36;98072.21;232200;204;137673;-55
2024/01/06 07:08:55;;;;;;;111.60;76.70;;;;;;;5.14;70.24;98082.08;231757;203;151676;-57
2024/01/06 07:13:58;;;;;;;31.60;20.50;;;;;;;5.23;69.93;98086.52;231727;204;137296;-54
2024/01/06 07:19:02;;;;;;;32.10;19.50;;;;;;;5.18;69.67;98084.87;232132;204;253530;-54
2024/01/06 07:24:06;;;;;;;30.20;19.00;;;;;;;5.09;69.72;98093.41;232172;201;152150;-55
2024/01/06 07:29:09;;;;;;;29.10;18.40;;;;;;;5.02;69.93;98097.16;231954;198;140034;-54
2024/01/06 07:34:12;;;;;;;28.20;19.10;;;;;;;4.96;70.20;98101.16;232169;198;137246;-52
2024/01/06 07:39:16;;;;;;;24.30;18.30;;;;;;;4.94;70.34;98100.39;232176;201;151200;-54
2024/01/06 07:44:24;;;;;;;26.90;19.10;;;;;;;4.92;70.68;98096.48;230652;198;137835;-52
2024/01/06 07:49:28;;;;;;;35.10;21.10;;;;;;;4.91;70.81;98094.61;232268;201;138236;-55
2024/01/06 07:54:31;;;;;;;28.20;19.10;;;;;;;4.94;70.84;98102.66;232159;204;152178;-54
2024/01/06 07:59:34;;;;;;;28.00;18.90;;;;;;;5.05;70.92;98108.08;232108;201;138006;-54
2024/01/06 08:04:38;;;;;;;27.80;18.80;;;;;;;5.14;70.81;98103.55;232256;204;137330;-55
2024/01/06 08:09:42;;;;;;;29.00;19.10;;;;;;;5.22;70.63;98109.41;231791;204;151452;-52
2024/01/06 08:14:47;;;;;;;27.10;19.10;;;;;;;5.26;70.44;98114.30;232008;198;138801;-53
2024/01/06 08:19:50;;;;;;;27.40;18.60;;;;;;;5.27;70.38;98121.10;232277;204;137056;-52
2024/01/06 08:24:53;;;;;;;34.10;20.40;;;;;;;5.30;70.58;98123.06;232271;201;152512;-55
2024/01/06 08:29:56;;;;;;;28.00;20.30;;;;;;;5.31;70.78;98126.86;232168;197;141336;-54
2024/01/06 08:34:59;;;;;;;28.60;19.80;;;;;;;5.34;70.80;98134.76;232142;204;137414;-52
2024/01/06 08:40:04;;;;;;;28.40;18.70;;;;;;;5.33;70.72;98131.86;232050;198;152012;-53
2024/01/06 08:45:08;;;;;;;29.60;19.20;;;;;;;5.31;70.76;98134.11;232007;201;140974;-54
2024/01/06 08:50:11;;;;;;;25.50;18.30;;;;;;;5.27;71.00;98144.84;232182;198;137396;-54
2024/01/06 08:55:16;;;;;;;28.20;17.90;;;;;;;5.27;70.97;98150.68;232316;198;152253;-53
2024/01/06 09:00:19;;;;;;;196.80;130.20;;;;;;;5.36;71.54;98148.39;231856;202;137877;-58
2024/01/06 09:05:23;;;;;;;30.20;21.40;;;;;;;5.58;71.61;98144.20;232178;201;137832;-55
2024/01/06 09:10:26;;;;;;;215.90;132.70;;;;;;;5.67;71.11;98145.79;232049;201;152418;-53
2024/01/06 09:15:29;;;;;;;32.40;22.50;;;;;;;5.75;70.71;98140.94;232032;204;139745;-53
2024/01/06 09:20:33;;;;;;;31.50;21.30;;;;;;;5.71;70.52;98141.50;232025;204;137237;-57
2024/01/06 09:25:36;;;;;;;31.20;20.90;;;;;;;5.68;70.50;98137.61;232209;201;151667;-54
2024/01/06 09:30:39;;;;;;;32.10;20.50;;;;;;;5.68;70.55;98139.58;231847;201;137848;-54
2024/01/06 09:35:44;;;;;;;31.40;21.00;;;;;;;5.67;70.72;98139.06;232036;198;136794;-56
2024/01/06 09:40:48;;;;;;;30.50;21.30;;;;;;;5.66;70.90;98138.42;231934;196;152661;-56
2024/01/06 09:45:59;;;;;;;32.10;22.10;;;;;;;5.66;70.96;98140.89;232046;201;137355;-54
2024/01/06 09:51:04;;;;;;;145.30;88.90;;;;;;;5.69;71.41;98134.04;232100;197;137610;-54
2024/01/06 09:56:08;;;;;;;32.90;21.60;;;;;;;5.90;71.42;98131.62;231945;198;236513;-55
2024/01/06 10:01:11;;;;;;;34.40;22.80;;;;;;;5.93;70.96;98129.70;232154;204;138108;-59
2024/01/06 10:06:16;;;;;;;34.30;23.10;;;;;;;6.01;70.88;98129.82;231992;199;137801;-57
2024/01/06 10:11:21;;;;;;;36.10;23.10;;;;;;;6.06;70.81;98125.79;231968;198;152127;-58
2024/01/06 10:16:25;;;;;;;34.50;22.40;;;;;;;6.07;71.00;98123.98;231620;201;138117;-60
2024/01/06 10:21:28;;;;;;;32.70;22.60;;;;;;;6.07;71.09;98121.66;232117;204;137227;-60
2024/01/06 10:26:31;;;;;;;33.30;22.30;;;;;;;6.07;70.99;98124.31;232066;201;151354;-54
2024/01/06 10:31:35;;;;;;;34.80;22.00;;;;;;;6.05;71.08;98115.29;232229;201;137812;-58
2024/01/06 10:36:38;;;;;;;675.20;487.00;;;;;;;6.06;71.38;98116.64;231958;198;137885;-58
2024/01/06 10:41:44;;;;;;;53.70;34.30;;;;;;;6.12;71.92;98116.99;232096;200;152474;-59
2024/01/06 10:46:49;;;;;;;33.70;22.00;;;;;;;6.19;71.39;98118.53;231998;204;138023;-57
2024/01/06 10:51:53;;;;;;;34.30;22.20;;;;;;;6.15;71.26;98114.89;232142;204;139104;-59
2024/01/06 10:56:57;;;;;;;34.50;22.90;;;;;;;6.15;71.22;98113.13;232111;201;151453;-59
2024/01/06 11:02:02;;;;;;;35.40;22.30;;;;;;;6.17;71.41;98105.77;232220;201;137996;-55
2024/01/06 11:07:06;;;;;;;32.40;21.60;;;;;;;6.21;71.32;98101.16;232111;202;137225;-59
2024/01/06 11:12:09;;;;;;;256.30;200.40;;;;;;;6.22;71.44;98096.86;232030;202;151574;-55
2024/01/06 11:17:12;;;;;;;63.90;42.70;;;;;;;6.26;72.31;98099.79;231478;198;137671;-57
2024/01/06 11:22:33;;;;;;;31.50;22.70;;;;;;;6.32;71.83;98102.56;232083;204;137802;-58
2024/01/06 11:27:37;;;;;;;822.80;585.30;;;;;;;6.28;71.66;98102.81;232005;202;151223;-58
2024/01/06 11:32:41;;;;;;;70.70;44.20;;;;;;;6.32;71.90;98102.77;232167;204;138590;-53
2024/01/06 11:37:45;;;;;;;35.70;23.90;;;;;;;6.26;71.67;98102.92;232258;204;136986;-56
2024/01/06 11:42:57;;;;;;;30.90;20.20;;;;;;;6.20;71.76;98099.97;231980;204;152090;-56
2024/01/06 11:48:03;;;;;;;110.50;71.30;;;;;;;6.21;72.25;98101.67;232035;204;138684;-55
2024/01/06 11:53:09;;;;;;;29.70;20.80;;;;;;;6.33;72.10;98099.34;232201;204;138472;-55
2024/01/06 11:58:16;;;;;;;28.70;20.00;;;;;;;6.37;71.78;98104.41;232052;201;152508;-56
2024/01/06 12:03:20;;;;;;;28.70;20.20;;;;;;;6.37;71.62;98100.67;231959;204;137193;-53
2024/01/06 12:08:24;;;;;;;29.50;19.60;;;;;;;6.37;71.50;98103.48;232066;204;137096;-55
2024/01/06 12:13:27;;;;;;;28.10;19.10;;;;;;;6.34;71.73;98102.45;232207;197;153354;-52
2024/01/06 12:18:31;;;;;;;26.50;17.60;;;;;;;6.30;71.71;98105.69;231760;204;136992;-54
2024/01/06 12:23:34;;;;;;;26.30;17.40;;;;;;;6.26;71.97;98111.06;231980;204;138754;-55
2024/01/06 12:28:37;;;;;;;26.20;17.00;;;;;;;6.21;72.02;98112.61;232090;197;152318;-54
2024/01/06 12:33:41;;;;;;;26.10;17.80;;;;;;;6.17;72.18;98114.75;232122;204;136926;-56
2024/01/06 12:38:45;;;;;;;24.90;17.60;;;;;;;6.14;72.34;98120.40;232071;204;138384;-56
2024/01/06 12:43:48;;;;;;;24.90;16.20;;;;;;;6.17;72.52;98121.27;232306;197;151283;-57
2024/01/06 12:48:51;;;;;;;185.10;118.80;;;;;;;6.28;72.59;98128.56;232021;201;138164;-53
2024/01/06 12:53:55;;;;;;;24.60;16.60;;;;;;;6.42;72.53;98135.81;232194;201;138561;-56
2024/01/06 12:58:58;;;;;;;23.00;15.70;;;;;;;6.44;71.85;98144.54;231927;205;151318;-56
2024/01/06 13:04:02;;;;;;;60.50;46.50;;;;;;;6.39;71.75;98152.77;232195;200;137977;-53
2024/01/06 13:09:06;;;;;;;31.70;21.30;;;;;;;6.42;72.67;98159.05;232145;204;138279;-56
2024/01/06 13:14:09;;;;;;;19.10;14.60;;;;;;;6.43;71.93;98156.73;232106;201;151973;-54
2024/01/06 13:19:12;;;;;;;18.80;13.70;;;;;;;6.34;71.64;98153.34;232010;204;137288;-54
2024/01/06 13:24:16;;;;;;;20.50;14.60;;;;;;;6.30;71.86;98155.52;231896;201;136769;-54
2024/01/06 13:29:19;;;;;;;16.90;13.00;;;;;;;6.25;71.68;98155.85;231909;201;151606;-52
2024/01/06 13:34:22;;;;;;;20.10;14.00;;;;;;;6.20;71.66;98157.55;231959;201;137602;-56
2024/01/06 13:39:26;;;;;;;19.00;13.60;;;;;;;6.20;71.63;98160.92;231996;204;137606;-58
2024/01/06 13:44:29;;;;;;;25.20;18.70;;;;;;;6.29;72.47;98162.67;232034;197;151342;-56
2024/01/06 13:49:32;;;;;;;17.20;12.30;;;;;;;6.37;71.64;98161.85;231593;204;141216;-54
2024/01/06 13:54:36;;;;;;;19.90;12.70;;;;;;;6.29;71.24;98163.92;232082;197;137827;-56
2024/01/06 13:59:42;;;;;;;17.30;11.90;;;;;;;6.19;71.32;98168.90;231908;198;152803;-56
2024/01/06 14:04:45;;;;;;;16.60;11.90;;;;;;;6.12;71.52;98174.40;232124;204;137547;-54
2024/01/06 14:09:49;;;;;;;14.90;11.10;;;;;;;6.06;71.55;98174.57;232016;201;137272;-54
2024/01/06 14:14:52;;;;;;;16.00;12.30;;;;;;;6.02;71.66;98180.64;232053;204;151965;-55
2024/01/06 14:19:55;;;;;;;23.20;16.90;;;;;;;6.00;72.35;98187.59;232027;201;137461;-53
2024/01/06 14:24:58;;;;;;;17.40;12.40;;;;;;;6.01;72.01;98194.40;232022;204;137596;-56
2024/01/06 14:30:09;;;;;;;16.90;11.90;;;;;;;5.96;71.91;98197.83;232097;197;151288;-55
2024/01/06 14:35:14;;;;;;;18.90;14.30;;;;;;;5.97;71.89;98197.30;232048;198;137250;-53
2024/01/06 14:40:17;;;;;;;22.10;14.50;;;;;;;5.99;71.91;98195.56;232138;204;137618;-55
2024/01/06 14:45:21;;;;;;;19.80;14.10;;;;;;;6.01;71.90;98197.77;232109;197;151424;-54
2024/01/06 14:50:25;;;;;;;18.70;13.30;;;;;;;6.00;71.95;98203.29;232009;201;136753;-56
2024/01/06 14:55:28;;;;;;;17.60;13.40;;;;;;;5.97;71.94;98208.23;232302;204;136635;-56
2024/01/06 15:00:31;;;;;;;21.20;14.30;;;;;;;5.94;71.81;98213.26;232035;198;151347;-55
2024/01/06 15:05:35;;;;;;;18.70;12.60;;;;;;;5.88;71.94;98215.17;232148;204;137084;-56
2024/01/06 15:10:39;;;;;;;19.70;12.90;;;;;;;5.84;72.07;98214.36;232039;204;137931;-55
2024/01/06 15:15:42;;;;;;;17.50;12.70;;;;;;;5.79;72.21;98210.94;232102;204;152074;-55
2024/01/06 15:20:47;;;;;;;17.50;12.00;;;;;;;5.76;72.35;98210.77;231933;204;137859;-56
2024/01/06 15:25:50;;;;;;;16.40;11.90;;;;;;;5.75;72.20;98210.45;232226;201;139990;-54
2024/01/06 15:30:53;;;;;;;19.20;13.70;;;;;;;5.78;72.13;98219.09;232069;200;151548;-53
2024/01/06 15:35:57;;;;;;;14.90;11.70;;;;;;;5.81;72.01;98223.13;232092;202;137123;-55
2024/01/06 15:41:00;;;;;;;16.50;11.90;;;;;;;5.78;71.88;98225.56;232126;201;137625;-55
2024/01/06 15:46:05;;;;;;;17.10;12.10;;;;;;;5.79;71.86;98228.88;232041;198;151635;-56
2024/01/06 15:51:09;;;;;;;16.30;11.60;;;;;;;5.73;71.77;98227.44;231917;200;138381;-56
2024/01/06 15:56:13;;;;;;;19.10;12.40;;;;;;;5.68;71.76;98231.61;230953;201;137419;-55
2024/01/06 16:01:16;;;;;;;17.10;12.60;;;;;;;5.61;71.78;98238.48;232209;204;152228;-56
2024/01/06 16:06:19;;;;;;;18.00;13.40;;;;;;;5.55;71.76;98240.62;231968;204;137455;-56
2024/01/06 16:11:23;;;;;;;19.30;12.90;;;;;;;5.47;71.88;98247.20;232011;202;137458;-55
2024/01/06 16:16:29;;;;;;;16.20;11.90;;;;;;;5.42;72.13;98249.21;232210;197;151639;-56
2024/01/06 16:21:32;;;;;;;21.60;12.60;;;;;;;5.39;72.11;98245.30;232086;204;138179;-55
2024/01/06 16:26:36;;;;;;;19.80;13.60;;;;;;;5.42;72.07;98244.27;231858;197;137384;-57
2024/01/06 16:31:39;;;;;;;17.40;12.70;;;;;;;5.47;71.94;98247.16;231741;198;152085;-57
2024/01/06 16:36:43;;;;;;;20.80;14.20;;;;;;;5.48;71.69;98248.36;231947;204;138186;-57
2024/01/06 16:41:46;;;;;;;22.30;14.20;;;;;;;5.45;71.75;98248.12;232131;204;136744;-56
2024/01/06 16:46:50;;;;;;;18.30;12.50;;;;;;;5.41;71.71;98252.75;232070;204;151599;-55
2024/01/06 16:51:54;;;;;;;15.30;11.20;;;;;;;5.35;71.49;98254.52;232026;205;137719;-56
2024/01/06 16:56:59;;;;;;;16.30;12.30;;;;;;;5.28;71.39;98260.18;232154;202;137166;-56
2024/01/06 17:02:03;;;;;;;16.10;10.30;;;;;;;5.21;71.35;98263.52;231715;202;153659;-56
2024/01/06 17:07:07;;;;;;;14.60;10.40;;;;;;;5.10;71.29;98271.28;231847;197;137643;-56
2024/01/06 17:12:11;;;;;;;15.30;10.30;;;;;;;5.05;71.52;98275.40;232284;204;137372;-56
2024/01/06 17:17:14;;;;;;;13.80;9.50;;;;;;;5.03;71.24;98281.00;231972;204;152699;-56
2024/01/06 17:22:18;;;;;;;11.20;8.90;;;;;;;5.03;71.08;98280.66;232085;204;137661;-56
2024/01/06 17:27:21;;;;;;;10.90;8.10;;;;;;;5.00;70.86;98278.52;232147;201;137981;-55
2024/01/06 17:32:24;;;;;;;136.00;101.80;;;;;;;4.98;71.20;98282.64;231916;197;151302;-55
2024/01/06 17:37:27;;;;;;;17.50;12.30;;;;;;;5.06;71.42;98284.89;232212;204;138108;-57
2024/01/06 17:42:31;;;;;;;12.50;8.60;;;;;;;5.08;70.61;98285.29;231984;204;137534;-56
2024/01/06 17:47:37;;;;;;;11.80;8.20;;;;;;;4.96;70.43;98283.80;231857;198;152167;-55
2024/01/06 17:52:40;;;;;;;11.60;7.00;;;;;;;4.85;70.40;98280.33;232070;204;136906;-55
2024/01/06 17:57:44;;;;;;;12.30;7.80;;;;;;;4.76;70.33;98284.45;232019;203;137549;-57
2024/01/06 18:02:47;;;;;;;12.20;7.70;;;;;;;4.67;70.56;98288.27;231313;200;152201;-57
2024/01/06 18:07:51;;;;;;;45.10;30.30;;;;;;;4.73;72.47;98289.71;232187;200;137735;-57
2024/01/06 18:12:54;;;;;;;12.20;7.60;;;;;;;4.86;71.03;98289.91;232135;204;136989;-56
2024/01/06 18:17:58;;;;;;;11.30;7.20;;;;;;;4.78;70.62;98293.52;232097;201;151591;-57
2024/01/06 18:23:02;;;;;;;11.00;6.70;;;;;;;4.74;70.56;98296.53;231578;198;140624;-55
2024/01/06 18:28:05;;;;;;;10.80;7.00;;;;;;;4.72;70.45;98296.45;231950;198;137749;-57
2024/01/06 18:33:09;;;;;;;11.60;6.60;;;;;;;4.70;70.44;98298.65;231984;197;155019;-57
2024/01/06 18:38:12;;;;;;;7.90;5.70;;;;;;;4.66;70.39;98297.28;231995;198;138732;-57
2024/01/06 18:43:15;;;;;;;9.00;6.10;;;;;;;4.59;70.57;98298.88;232060;198;138696;-58
2024/01/06 18:48:19;;;;;;;7.40;5.40;;;;;;;4.54;70.53;98301.02;231926;204;154472;-57
2024/01/06 18:53:22;;;;;;;8.10;5.70;;;;;;;4.49;70.65;98302.48;231952;199;137711;-58
2024/01/06 18:58:26;;;;;;;479.80;329.00;;;;;;;4.44;71.22;98299.42;232084;204;137542;-56
2024/01/06 19:03:30;;;;;;;12.50;8.40;;;;;;;4.63;72.66;98297.95;232067;204;153500;-56
2024/01/06 19:08:33;;;;;;;8.50;5.70;;;;;;;4.62;70.84;98294.50;232076;204;141170;-55
2024/01/06 19:13:38;;;;;;;9.50;5.60;;;;;;;4.55;70.73;98297.13;232316;198;138130;-56
2024/01/06 19:18:41;;;;;;;6.10;5.00;;;;;;;4.54;70.63;98300.15;231912;204;154240;-57
2024/01/06 19:23:45;;;;;;;8.00;5.50;;;;;;;4.52;70.65;98296.75;231931;201;140292;-57
2024/01/06 19:28:48;;;;;;;7.30;5.30;;;;;;;4.48;70.67;98303.09;231987;201;138134;-56
2024/01/06 19:33:53;;;;;;;8.30;4.90;;;;;;;4.42;70.64;98307.42;231955;204;153382;-58
2024/01/06 19:38:56;;;;;;;6.80;4.60;;;;;;;4.36;70.76;98305.80;231962;200;137478;-58
2024/01/06 19:44:01;;;;;;;7.30;5.20;;;;;;;4.33;71.00;98310.70;232134;204;142575;-57
2024/01/06 19:49:05;;;;;;;8.00;5.10;;;;;;;4.29;71.01;98309.83;231819;201;153108;-59
2024/01/06 19:54:08;;;;;;;375.70;269.40;;;;;;;4.26;71.68;98313.65;231951;197;138389;-56
2024/01/06 19:59:14;;;;;;;11.90;7.40;;;;;;;4.49;72.01;98315.49;231895;198;137951;-56
2024/01/06 20:04:17;;;;;;;9.70;5.50;;;;;;;4.44;70.89;98320.12;231974;204;153419;-57
2024/01/06 20:09:20;;;;;;;8.40;5.00;;;;;;;4.41;70.85;98318.16;232106;201;138310;-55
2024/01/06 20:14:24;;;;;;;8.30;5.10;;;;;;;4.38;70.84;98318.67;232130;201;137541;-57
2024/01/06 20:19:27;;;;;;;7.60;5.00;;;;;;;4.37;70.75;98321.54;232247;197;153807;-58
2024/01/06 20:24:31;;;;;;;6.00;4.60;;;;;;;4.33;70.48;98324.00;231818;199;137364;-55
2024/01/06 20:29:35;;;;;;;6.50;4.50;;;;;;;4.26;70.41;98325.03;231841;198;137596;-56
2024/01/06 20:34:38;;;;;;;7.50;4.90;;;;;;;4.16;70.52;98329.71;231891;201;153247;-58
2024/01/06 20:39:42;;;;;;;6.50;4.50;;;;;;;4.09;70.61;98327.64;231942;204;136871;-56
2024/01/06 20:44:45;;;;;;;35.80;24.60;;;;;;;4.04;71.28;98330.83;232097;196;137375;-56
2024/01/06 20:49:48;;;;;;;55.00;32.70;;;;;;;4.13;71.64;98332.68;232006;201;153925;-59
2024/01/06 20:54:52;;;;;;;6.40;4.90;;;;;;;4.13;70.71;98335.69;231872;198;138318;-56
2024/01/06 20:59:56;;;;;;;10.10;5.80;;;;;;;4.07;70.58;98339.30;232036;201;137299;-58
2024/01/06 21:05:03;;;;;;;7.40;5.10;;;;;;;3.99;70.08;98337.36;231985;201;153859;-55
2024/01/06 21:10:10;;;;;;;7.80;5.30;;;;;;;3.87;69.86;98338.81;232001;197;138286;-60
2024/01/06 21:15:14;;;;;;;7.10;5.40;;;;;;;3.75;70.16;98336.77;232027;201;137912;-55
2024/01/06 21:20:17;;;;;;;8.20;5.30;;;;;;;3.68;70.39;98335.66;231090;204;154114;-54
2024/01/06 21:25:22;;;;;;;8.30;5.40;;;;;;;3.62;70.21;98337.89;232213;200;139602;-54
2024/01/06 21:30:26;;;;;;;8.50;5.60;;;;;;;3.49;69.95;98347.36;231990;204;137330;-55
2024/01/06 21:35:30;;;;;;;9.50;5.70;;;;;;;3.34;70.12;98353.33;232018;198;153320;-54
2024/01/06 21:40:33;;;;;;;9.40;6.10;;;;;;;3.27;70.36;98354.51;232083;202;137498;-54
2024/01/06 21:45:37;;;;;;;8.60;6.50;;;;;;;3.23;70.66;98351.16;232172;204;139553;-57
2024/01/06 21:50:41;;;;;;;9.00;6.10;;;;;;;3.23;70.89;98350.98;232304;203;153858;-57
2024/01/06 21:55:45;;;;;;;8.70;5.90;;;;;;;3.26;70.77;98347.87;232490;204;137833;-56
2024/01/06 22:00:50;;;;;;;22.30;14.90;;;;;;;3.34;71.23;98352.80;231112;205;138276;-52
2024/01/06 22:05:54;;;;;;;9.00;6.20;;;;;;;3.43;70.36;98355.55;231406;204;154406;-54
2024/01/06 22:10:57;;;;;;;9.50;6.70;;;;;;;3.41;70.20;98352.67;232030;198;137935;-54
2024/01/06 22:16:01;;;;;;;8.80;5.80;;;;;;;3.34;69.96;98356.65;231777;204;138667;-55
2024/01/06 22:21:04;;;;;;;8.70;5.70;;;;;;;3.22;69.74;98364.34;232068;204;153444;-52
2024/01/06 22:26:08;;;;;;;10.30;6.10;;;;;;;3.11;69.86;98365.88;232082;199;137592;-55
2024/01/06 22:31:11;;;;;;;9.10;5.40;;;;;;;3.02;69.74;98364.67;232130;198;137363;-57
2024/01/06 22:36:16;;;;;;;7.80;5.60;;;;;;;2.94;69.98;98367.67;231942;198;153049;-56
2024/01/06 22:41:19;;;;;;;9.20;6.30;;;;;;;2.84;70.06;98367.39;232108;204;141415;-56
2024/01/06 22:46:22;;;;;;;7.90;4.90;;;;;;;2.77;70.14;98368.53;232035;204;137493;-57
2024/01/06 22:51:28;;;;;;;7.30;5.30;;;;;;;2.72;70.14;98370.16;232020;204;153338;-55
2024/01/06 22:56:32;;;;;;;9.40;5.80;;;;;;;2.64;70.23;98369.94;231987;202;137687;-57
2024/01/06 23:01:35;;;;;;;8.90;5.70;;;;;;;2.60;70.21;98372.91;232249;204;138971;-63
2024/01/06 23:06:38;;;;;;;7.10;5.40;;;;;;;2.55;70.17;98373.61;231988;204;154873;-54
2024/01/06 23:11:43;;;;;;;8.60;5.30;;;;;;;2.47;70.19;98376.23;232016;200;138156;-56
2024/01/06 23:16:46;;;;;;;7.50;5.00;;;;;;;2.44;70.00;98373.05;232133;204;138122;-56
2024/01/06 23:21:49;;;;;;;8.00;5.30;;;;;;;2.43;70.02;98383.06;231567;204;153364;-53